KMMH

Mammoth Yosemite Airport

Mammoth Lakes, California, USA
METAR KMMH 200655Z AUTO 34003KT 10SM BKN041 OVC047 M13/M16 A2990 RMK AO2 T11321164
Observed Flight Rules
Feb-20 @ 06:55 UTC (29 minutes ago) Visual Flight Rules
Wind Visibility Clouds
340° at 3 knots 10 miles
  • Broken at 4,100' AGL
  • Overcast at 4,700' AGL
Temperatures Readings
Current -13°C / 9°F
Dewpoint -16°C / 3°F
Humidity 78%
Altimeter 29.9" Hg
Pressure 1013 hPa
Elevation 2173
METAR KMMH 200655Z AUTO 34003KT 10SM BKN041 OVC047 M13/M16 A2990 RMK AO2 T11321164
Observed Flight Rules
Feb-20 @ 06:55 UTC
(29 minutes ago)
VFR
Wind Visibility
340° at 3 knots 10 miles
Clouds
  • Broken at 4,100' AGL
  • Overcast at 4,700' AGL
Temperature Dewpoint
-13°C / 9°F -16°C / 3°F
Humidity Altimeter Pressure
78% 29.9" Hg 1013 hPa